Time;durP1;ratioP1;P1;durP2;ratioP2;P2;SDS_P1;SDS_P2;PMS_P1;PMS_P2;Temp;Humidity;BMP_temperature;BMP_pressure;BME280_temperature;BME280_humidity;BME280_pressure;Samples;Min_cycle;Max_cycle;Signal;HPM_P1;HPM_P2
2023/02/08 00:00:50;;;;;;;45.00;18.90;;;;;;;-2.80;85.39;100806.64;106391;1265;22502;-74
2023/02/08 00:03:27;;;;;;;49.40;20.30;;;;;;;-2.80;85.26;100805.97;106537;1279;139282;-73
2023/02/08 00:05:54;;;;;;;51.00;21.60;;;;;;;-2.82;85.15;100810.89;108919;1283;22579;-73
2023/02/08 00:08:21;;;;;;;50.40;21.90;;;;;;;-2.81;85.16;100817.98;106361;1283;138506;-73
2023/02/08 00:10:48;;;;;;;53.80;23.40;;;;;;;-2.82;85.17;100816.80;106392;1263;22553;-74
2023/02/08 00:13:16;;;;;;;46.60;21.90;;;;;;;-2.79;85.42;100817.10;106271;1279;138544;-74
2023/02/08 00:15:45;;;;;;;52.10;23.20;;;;;;;-2.75;85.40;100819.85;106302;1284;25237;-73
2023/02/08 00:18:13;;;;;;;50.10;21.80;;;;;;;-2.72;85.18;100818.22;106741;1278;22577;-73
2023/02/08 00:20:42;;;;;;;52.10;23.90;;;;;;;-2.67;85.46;100819.52;106150;1281;138567;-75
2023/02/08 00:23:10;;;;;;;51.90;22.10;;;;;;;-2.61;85.38;100816.83;106384;1265;22554;-73
2023/02/08 00:25:39;;;;;;;49.90;21.30;;;;;;;-2.59;85.01;100825.21;106561;1283;138437;-73
2023/02/08 00:28:10;;;;;;;47.50;20.30;;;;;;;-2.60;84.91;100819.77;106754;1281;22535;-73
2023/02/08 00:30:37;;;;;;;45.90;21.50;;;;;;;-2.62;84.72;100826.10;106572;1282;26523;-73
2023/02/08 00:33:04;;;;;;;51.10;22.60;;;;;;;-2.62;84.87;100827.21;106308;1265;138088;-73
2023/02/08 00:35:32;;;;;;;50.10;22.60;;;;;;;-2.63;85.14;100826.41;106349;1283;25085;-73
2023/02/08 00:37:59;;;;;;;49.40;22.90;;;;;;;-2.63;84.85;100823.38;106308;1284;138423;-73
2023/02/08 00:40:26;;;;;;;49.60;22.40;;;;;;;-2.61;85.07;100819.45;106972;1283;24277;-74
2023/02/08 00:42:53;;;;;;;49.70;22.30;;;;;;;-2.54;85.61;100822.52;106373;1265;23121;-73
2023/02/08 00:45:20;;;;;;;51.00;21.70;;;;;;;-2.49;85.21;100818.84;106296;1281;138386;-73
2023/02/08 00:47:47;;;;;;;46.60;20.40;;;;;;;-2.46;85.11;100821.55;106349;1278;22543;-73
2023/02/08 00:50:15;;;;;;;46.80;22.50;;;;;;;-2.45;85.17;100821.64;106375;1281;138021;-73
2023/02/08 00:52:42;;;;;;;47.30;21.50;;;;;;;-2.44;85.13;100819.21;106481;1269;22663;-73
2023/02/08 00:55:11;;;;;;;46.00;21.80;;;;;;;-2.42;85.15;100816.95;106520;1280;138544;-74
2023/02/08 00:57:39;;;;;;;42.10;19.50;;;;;;;-2.39;84.84;100821.73;106429;1281;25356;-73
2023/02/08 01:00:07;;;;;;;41.50;20.90;;;;;;;-2.36;84.93;100821.17;106434;1282;25322;-73
2023/02/08 01:02:38;;;;;;;38.20;19.50;;;;;;;-2.32;85.01;100822.72;106411;1284;137755;-73
2023/02/08 01:05:05;;;;;;;45.40;20.50;;;;;;;-2.28;85.18;100826.66;106392;1284;22797;-73
2023/02/08 01:07:34;;;;;;;43.70;20.30;;;;;;;-2.24;84.98;100823.24;106275;1281;138993;-74
2023/02/08 01:10:04;;;;;;;45.50;20.70;;;;;;;-2.21;85.18;100818.23;106367;1284;22538;-73
2023/02/08 01:12:31;;;;;;;41.80;21.40;;;;;;;-2.19;84.80;100822.91;106366;1265;24273;-73
2023/02/08 01:14:59;;;;;;;43.00;22.00;;;;;;;-2.19;84.62;100828.05;106314;1275;138537;-73
2023/02/08 01:17:27;;;;;;;47.80;22.10;;;;;;;-2.17;84.82;100826.33;106292;1283;22728;-73
2023/02/08 01:19:53;;;;;;;46.50;22.00;;;;;;;-2.14;84.83;100828.64;106286;1282;138521;-73
2023/02/08 01:22:20;;;;;;;45.40;21.70;;;;;;;-2.14;84.47;100833.63;105984;1269;484009;-74
2023/02/08 01:24:47;;;;;;;53.40;24.60;;;;;;;-2.15;84.74;100833.84;106389;1278;24269;-73
2023/02/08 01:27:14;;;;;;;53.50;27.50;;;;;;;-2.15;84.68;100836.65;106133;1281;138122;-73
2023/02/08 01:29:41;;;;;;;61.70;27.30;;;;;;;-2.16;84.50;100830.19;106277;1284;25527;-73
2023/02/08 01:32:08;;;;;;;59.30;27.50;;;;;;;-2.18;84.48;100829.08;106179;1283;138849;-75
2023/02/08 01:34:35;;;;;;;55.20;25.30;;;;;;;-2.20;84.25;100829.16;106453;1265;22572;-73
2023/02/08 01:37:02;;;;;;;57.80;27.00;;;;;;;-2.19;84.55;100829.29;106478;1282;22529;-73
2023/02/08 01:39:29;;;;;;;49.80;21.50;;;;;;;-2.17;84.70;100823.30;106700;1282;137935;-74
2023/02/08 01:41:56;;;;;;;47.80;23.00;;;;;;;-2.17;84.59;100825.09;106652;1283;23194;-74
2023/02/08 01:45:22;;;;;;;47.20;21.00;;;;;;;-2.18;84.66;100823.90;106368;1266;137821;-73
2023/02/08 01:48:02;;;;;;;45.40;19.10;;;;;;;-2.24;84.39;100824.69;105925;1291;22546;-74
2023/02/08 01:50:41;;;;;;;41.90;19.20;;;;;;;-2.33;84.39;100826.13;105791;1289;138632;-73
2023/02/08 01:53:09;;;;;;;;;;;;;;;-2.39;84.86;100826.15;106122;1270;25208;-73
2023/02/08 01:55:42;;;;;;;43.90;18.80;;;;;;;-2.47;84.79;100825.98;105992;1289;124425;-73
2023/02/08 01:58:12;;;;;;;41.50;18.60;;;;;;;-2.52;85.27;100826.70;106515;1290;22539;-74
2023/02/08 02:00:39;;;;;;;;;;;;;;;-2.54;85.80;100830.38;106100;1283;24396;-73
2023/02/08 02:03:06;;;;;;;36.30;17.30;;;;;;;-2.57;85.69;100834.31;105928;1274;123841;-73
2023/02/08 02:05:47;;;;;;;43.40;20.50;;;;;;;-2.59;85.96;100833.35;106073;1290;25375;-74
2023/02/08 02:08:15;;;;;;;49.20;22.60;;;;;;;-2.59;86.11;100831.07;105872;1279;138886;-73
2023/02/08 02:10:42;;;;;;;42.30;20.50;;;;;;;-2.57;86.09;100833.83;106100;1280;24298;-73
2023/02/08 02:13:14;;;;;;;50.50;19.90;;;;;;;-2.57;86.28;100833.77;105960;1287;23945;-73
2023/02/08 02:15:44;;;;;;;45.60;20.50;;;;;;;-2.55;86.43;100828.69;105946;1290;22545;-73
2023/02/08 02:18:16;;;;;;;44.60;19.30;;;;;;;-2.54;86.70;100832.88;106069;1285;22531;-73
2023/02/08 02:21:18;;;;;;;44.80;21.00;;;;;;;-2.52;86.68;100838.26;106284;1284;137860;-73
2023/02/08 02:24:03;;;;;;;45.20;21.80;;;;;;;-2.50;86.82;100834.36;106368;1267;22537;-73
2023/02/08 02:27:02;;;;;;;43.50;22.30;;;;;;;-2.47;86.85;100838.67;106290;1284;138977;-73
2023/02/08 02:30:11;;;;;;;41.70;21.10;;;;;;;-2.47;86.75;100843.30;106415;1284;22550;-73
2023/02/08 02:32:50;;;;;;;42.50;19.80;;;;;;;-2.44;87.09;100837.91;106300;1269;138319;-74
2023/02/08 02:35:41;;;;;;;46.60;20.90;;;;;;;-2.43;86.79;100842.08;106390;1268;24219;-73
2023/02/08 02:38:27;;;;;;;40.90;20.20;;;;;;;-2.42;87.03;100838.15;106322;1281;138465;-74
2023/02/08 02:43:40;;;;;;;50.80;22.90;;;;;;;-2.40;87.02;100836.21;106387;1278;22840;-73
2023/02/08 02:44:30;;;;;;;50.90;22.90;;;;;;;-2.38;86.97;100836.25;106324;1266;138340;-73
2023/02/08 02:47:05;;;;;;;;;;;;;;;-2.38;87.00;100841.07;106415;1284;25348;-73
2023/02/08 02:49:43;;;;;;;50.10;22.40;;;;;;;-2.37;87.18;100843.50;106362;1269;124714;-74
2023/02/08 02:52:13;;;;;;;49.50;22.20;;;;;;;-2.37;87.24;100840.82;106361;1284;22541;-73
2023/02/08 02:54:44;;;;;;;56.60;23.40;;;;;;;-2.35;87.42;100845.33;106241;1284;22658;-73
2023/02/08 02:57:16;;;;;;;57.00;23.90;;;;;;;-2.34;87.31;100849.33;106440;1284;137687;-74
2023/02/08 02:59:45;;;;;;;51.50;24.50;;;;;;;-2.34;87.12;100850.05;106369;1284;22664;-73
2023/02/08 03:02:13;;;;;;;51.30;23.80;;;;;;;-2.32;87.38;100854.38;106288;1278;139058;-73
2023/02/08 03:04:40;;;;;;;50.90;23.20;;;;;;;-2.29;87.28;100855.77;106248;1268;22543;-73
2023/02/08 03:07:17;;;;;;;50.60;23.20;;;;;;;-2.27;87.32;100859.02;106406;1284;24457;-73
2023/02/08 03:10:08;;;;;;;47.40;22.00;;;;;;;-2.24;87.70;100860.58;106582;1283;25431;-73
2023/02/08 03:12:43;;;;;;;50.50;22.70;;;;;;;-2.23;87.56;100860.18;106523;1282;22548;-73
2023/02/08 03:15:26;;;;;;;56.90;25.30;;;;;;;-2.26;87.48;100864.14;106320;1266;138203;-73
2023/02/08 03:18:15;;;;;;;47.80;23.90;;;;;;;-2.28;87.74;100860.83;106376;1276;25636;-73
2023/02/08 03:20:47;;;;;;;;;;;;;;;-2.24;88.12;100866.08;106284;1281;138840;-73
2023/02/08 03:23:31;;;;;;;53.80;24.00;;;;;;;-2.21;88.01;100873.04;106361;1265;24035;-73
2023/02/08 03:26:09;;;;;;;49.90;24.20;;;;;;;-2.21;88.03;100876.20;106489;1283;138659;-73
2023/02/08 03:28:50;;;;;;;55.10;26.00;;;;;;;-2.18;88.21;100881.88;106548;1275;22983;-73
2023/02/08 03:31:56;;;;;;;58.40;25.60;;;;;;;-2.14;88.42;100881.30;106389;1281;139245;-74
2023/02/08 03:34:46;;;;;;;52.80;24.80;;;;;;;-2.12;88.21;100882.23;105984;1288;23846;-73
2023/02/08 03:37:23;;;;;;;56.00;24.40;;;;;;;-2.12;88.08;100887.35;105934;1272;25402;-73
2023/02/08 03:39:57;;;;;;;58.60;25.40;;;;;;;-2.11;88.18;100891.02;106009;1288;25667;-73
2023/02/08 03:42:27;;;;;;;55.80;24.70;;;;;;;-2.09;88.58;100891.09;106109;1288;22977;-73
2023/02/08 03:45:01;;;;;;;55.80;24.70;;;;;;;-2.08;88.23;100891.72;106058;1289;138722;-73
2023/02/08 03:47:34;;;;;;;56.70;25.50;;;;;;;-2.08;88.26;100892.60;106099;1272;23388;-73
2023/02/08 03:50:07;;;;;;;57.90;25.50;;;;;;;-2.08;88.61;100892.80;106300;1283;138590;-74
2023/02/08 03:52:35;;;;;;;55.20;26.20;;;;;;;-2.05;88.45;100895.45;106086;1290;24527;-73
2023/02/08 03:55:05;;;;;;;55.30;25.60;;;;;;;-2.04;88.47;100894.46;106203;1288;22660;-73
2023/02/08 03:57:39;;;;;;;52.60;25.60;;;;;;;-2.04;88.54;100893.43;105935;1276;138086;-74
2023/02/08 04:00:11;;;;;;;58.10;25.70;;;;;;;-2.02;88.56;100899.54;105840;1290;22542;-74
2023/02/08 04:03:06;;;;;;;56.90;26.50;;;;;;;-2.03;88.44;100897.44;105877;1290;138861;-74
2023/02/08 04:05:33;;;;;;;57.80;26.80;;;;;;;-2.02;89.06;100903.61;106336;1290;22558;-74
2023/02/08 04:08:00;;;;;;;52.00;24.80;;;;;;;-2.00;88.82;100903.96;105842;1272;139351;-73
2023/02/08 04:10:27;;;;;;;54.90;27.10;;;;;;;-1.97;88.77;100900.39;106232;1284;22559;-73
2023/02/08 04:12:54;;;;;;;50.70;25.40;;;;;;;-1.96;88.89;100893.05;106601;1283;23941;-73
2023/02/08 04:15:21;;;;;;;56.80;25.80;;;;;;;-1.94;89.09;100891.66;106188;1281;139690;-74
2023/02/08 04:17:48;;;;;;;58.60;25.90;;;;;;;-1.90;88.93;100888.20;106368;1263;25551;-73
2023/02/08 04:20:16;;;;;;;57.80;26.00;;;;;;;-1.87;89.03;100881.42;106235;1278;138360;-73
2023/02/08 04:22:43;;;;;;;54.10;25.30;;;;;;;-1.84;88.85;100878.91;106248;1284;25380;-74
2023/02/08 04:25:10;;;;;;;57.70;26.20;;;;;;;-1.84;88.63;100877.63;106242;1284;24296;-73
2023/02/08 04:27:37;;;;;;;51.90;26.90;;;;;;;-1.85;88.61;100875.01;106518;1283;138051;-73
2023/02/08 04:30:04;;;;;;;59.60;26.40;;;;;;;-1.89;88.50;100867.45;106403;1283;25288;-73
2023/02/08 04:32:32;;;;;;;58.60;28.40;;;;;;;-1.93;88.34;100863.13;106201;1283;138891;-73
2023/02/08 04:34:59;;;;;;;55.10;26.40;;;;;;;-1.97;88.44;100864.11;106427;1279;25186;-73
2023/02/08 04:37:26;;;;;;;55.40;27.20;;;;;;;-2.02;88.25;100863.59;106261;1266;140198;-73
2023/02/08 04:39:53;;;;;;;56.90;25.40;;;;;;;-2.05;88.62;100864.29;106294;1282;23227;-73
2023/02/08 04:42:20;;;;;;;57.90;25.70;;;;;;;-2.03;88.95;100864.19;106426;1283;24232;-73
2023/02/08 04:44:47;;;;;;;52.00;24.60;;;;;;;-2.03;88.73;100862.95;106342;1282;137906;-73
2023/02/08 04:47:13;;;;;;;52.50;24.40;;;;;;;-2.05;88.71;100863.23;106276;1267;22781;-73
2023/02/08 04:49:40;;;;;;;56.80;25.70;;;;;;;-2.10;88.35;100866.21;106655;1281;138514;-73
2023/02/08 04:52:07;;;;;;;56.00;26.10;;;;;;;-2.12;88.60;100864.60;106254;1276;24212;-75
2023/02/08 04:54:34;;;;;;;52.40;24.60;;;;;;;-2.12;88.95;100869.06;106405;1283;22550;-74
2023/02/08 04:57:01;;;;;;;55.90;25.10;;;;;;;-2.15;88.70;100875.83;106329;1266;138432;-73
2023/02/08 04:59:28;;;;;;;49.30;23.90;;;;;;;-2.14;89.19;100882.71;106321;1284;22572;-73
2023/02/08 05:01:55;;;;;;;50.60;24.30;;;;;;;-2.13;89.08;100887.42;106181;1265;138116;-74
2023/02/08 05:04:22;;;;;;;51.80;23.90;;;;;;;-2.13;88.98;100890.45;106268;1284;22539;-73
2023/02/08 05:06:49;;;;;;;57.30;26.70;;;;;;;-2.14;88.80;100897.61;106383;1281;22656;-74
2023/02/08 05:09:16;;;;;;;57.30;27.80;;;;;;;-2.14;88.95;100905.30;106110;1277;138879;-74
2023/02/08 05:11:43;;;;;;;54.70;25.90;;;;;;;-2.15;89.00;100905.54;106294;1284;22563;-74
2023/02/08 05:14:10;;;;;;;56.10;26.60;;;;;;;-2.15;88.95;100908.19;106248;1284;138618;-74
2023/02/08 05:16:37;;;;;;;49.60;24.40;;;;;;;-2.14;89.24;100909.23;106272;1284;24288;-73
2023/02/08 05:19:03;;;;;;;58.10;26.90;;;;;;;-2.13;89.40;100908.23;106394;1273;22902;-74
2023/02/08 05:21:30;;;;;;;52.60;24.90;;;;;;;-2.12;89.21;100911.54;106339;1283;137843;-73
2023/02/08 05:23:57;;;;;;;55.30;26.80;;;;;;;-2.11;89.75;100919.70;106380;1283;25245;-73
2023/02/08 05:26:24;;;;;;;53.90;27.10;;;;;;;-2.10;89.70;100918.92;106214;1282;137707;-73
2023/02/08 05:28:51;;;;;;;56.70;26.90;;;;;;;-2.10;89.53;100914.42;106256;1272;27646;-73
2023/02/08 05:31:23;;;;;;;54.10;26.20;;;;;;;-2.13;89.61;100921.08;106290;1284;140190;-74
2023/02/08 05:33:52;;;;;;;53.00;24.50;;;;;;;-2.15;89.61;100924.60;106219;1283;23001;-73
2023/02/08 05:36:20;;;;;;;51.60;24.60;;;;;;;-2.19;89.50;100924.81;106266;1284;22546;-73
2023/02/08 05:38:46;;;;;;;58.80;24.30;;;;;;;-2.24;89.42;100924.08;106291;1283;138400;-74
2023/02/08 05:41:15;;;;;;;53.40;24.10;;;;;;;-2.27;89.65;100928.61;106444;1282;24211;-73
2023/02/08 05:43:42;;;;;;;52.30;25.10;;;;;;;-2.30;89.91;100928.20;106320;1283;138685;-74
2023/02/08 05:46:10;;;;;;;56.30;24.40;;;;;;;-2.30;90.09;100929.68;106495;1283;24224;-74
2023/02/08 05:48:37;;;;;;;56.90;26.50;;;;;;;-2.33;89.95;100932.16;106401;1265;22804;-73
2023/02/08 05:51:04;;;;;;;50.90;26.00;;;;;;;-2.34;89.95;100937.22;106157;1283;139967;-73
2023/02/08 05:53:31;;;;;;;50.50;24.50;;;;;;;-2.35;90.17;100942.81;106197;1263;22540;-73
2023/02/08 05:55:58;;;;;;;54.60;24.80;;;;;;;-2.35;90.19;100952.03;106237;1284;138878;-73
2023/02/08 05:58:25;;;;;;;50.10;23.80;;;;;;;-2.37;90.10;100957.52;106309;1270;24267;-74
2023/02/08 06:00:52;;;;;;;60.70;26.20;;;;;;;-2.37;90.36;100960.73;106283;1282;22561;-73
2023/02/08 06:03:19;;;;;;;51.10;24.40;;;;;;;-2.37;90.35;100968.59;106186;1283;138684;-74
2023/02/08 06:05:46;;;;;;;53.30;25.40;;;;;;;-2.39;90.32;100969.58;106354;1282;25026;-73
2023/02/08 06:08:14;;;;;;;54.70;25.70;;;;;;;-2.39;90.29;100969.20;106498;1260;138369;-74
2023/02/08 06:10:41;;;;;;;62.00;27.20;;;;;;;-2.37;90.55;100972.84;106381;1283;23737;-74
2023/02/08 06:13:08;;;;;;;63.20;27.10;;;;;;;-2.37;90.51;100969.65;106205;1281;22536;-74
2023/02/08 06:15:34;;;;;;;58.60;26.40;;;;;;;-2.37;90.32;100973.02;106629;1282;139864;-74
2023/02/08 06:18:02;;;;;;;63.20;29.80;;;;;;;-2.35;90.52;100971.63;106367;1281;22560;-73
2023/02/08 06:20:30;;;;;;;63.20;27.60;;;;;;;-2.33;90.69;100978.25;106367;1274;140223;-74
2023/02/08 06:22:57;;;;;;;59.70;28.40;;;;;;;-2.30;90.58;100981.98;106538;1283;22660;-74
2023/02/08 06:25:23;;;;;;;64.70;29.70;;;;;;;-2.27;90.31;100975.21;106282;1282;139755;-74
2023/02/08 06:27:50;;;;;;;63.60;29.80;;;;;;;-2.26;90.54;100979.80;106454;1280;22539;-73
2023/02/08 06:30:18;;;;;;;67.20;29.30;;;;;;;-2.24;90.54;100977.29;106309;1274;25367;-73
2023/02/08 06:32:44;;;;;;;72.40;31.70;;;;;;;-2.22;90.49;100976.45;106310;1283;138577;-73
2023/02/08 06:35:12;;;;;;;67.20;29.60;;;;;;;-2.21;90.57;100982.30;106207;1284;22681;-73
2023/02/08 06:37:39;;;;;;;66.70;31.90;;;;;;;-2.17;90.65;100986.09;106209;1284;138571;-74
2023/02/08 06:40:07;;;;;;;76.70;31.90;;;;;;;-2.16;90.32;100984.58;106830;1264;22675;-74
2023/02/08 06:42:35;;;;;;;71.50;32.40;;;;;;;-2.14;90.12;100988.44;106815;1277;22722;-74
2023/02/08 06:45:02;;;;;;;72.50;32.80;;;;;;;-2.15;89.94;100996.13;106250;1283;138460;-74
2023/02/08 06:47:29;;;;;;;72.10;35.80;;;;;;;-2.15;89.65;100998.45;106436;1283;22812;-73
2023/02/08 06:49:56;;;;;;;75.10;34.40;;;;;;;-2.15;89.68;101001.45;106210;1283;138927;-74
2023/02/08 06:52:23;;;;;;;74.60;33.80;;;;;;;-2.12;89.69;101004.66;106318;1283;22658;-74
2023/02/08 06:54:49;;;;;;;73.70;35.60;;;;;;;-2.10;89.64;101002.16;106297;1283;24257;-73
2023/02/08 06:57:16;;;;;;;78.10;34.90;;;;;;;-2.06;89.65;101001.98;106301;1284;138806;-73
2023/02/08 06:59:44;;;;;;;72.90;33.90;;;;;;;-2.03;89.81;101007.10;106249;1266;22540;-73
2023/02/08 07:02:13;;;;;;;66.50;32.40;;;;;;;-2.01;89.55;101001.60;106190;1283;139642;-74
2023/02/08 07:04:40;;;;;;;70.70;32.90;;;;;;;-1.98;89.40;101000.37;106685;1284;25501;-74
2023/02/08 07:07:07;;;;;;;67.60;31.60;;;;;;;-1.94;89.62;101003.25;106352;1284;22537;-74
2023/02/08 07:09:35;;;;;;;67.80;31.80;;;;;;;-1.86;89.53;101008.32;106245;1260;139592;-74
2023/02/08 07:12:04;;;;;;;67.00;31.00;;;;;;;-1.79;89.82;101017.08;106415;1282;22537;-74
2023/02/08 07:14:32;;;;;;;65.10;29.40;;;;;;;-1.73;89.88;101017.75;106474;1276;138417;-74
2023/02/08 07:17:01;;;;;;;72.50;34.30;;;;;;;-1.59;90.50;101017.13;106905;1283;22551;-73
2023/02/08 07:19:28;;;;;;;72.40;32.60;;;;;;;-1.48;89.77;101018.23;106365;1279;138546;-74
2023/02/08 07:21:56;;;;;;;66.30;31.80;;;;;;;-1.42;89.31;101015.80;106364;1274;22557;-73
2023/02/08 07:24:24;;;;;;;73.90;33.80;;;;;;;-1.37;88.67;101010.34;106362;1283;22663;-73
2023/02/08 07:26:50;;;;;;;73.50;33.70;;;;;;;-1.32;88.80;101010.20;106575;1280;139628;-74
2023/02/08 07:29:17;;;;;;;72.80;33.50;;;;;;;-1.25;89.01;101016.44;106452;1284;23249;-74
2023/02/08 07:31:44;;;;;;;77.10;34.00;;;;;;;-1.17;88.69;101016.42;106367;1275;138820;-73
2023/02/08 07:34:13;;;;;;;71.70;33.30;;;;;;;-1.07;88.30;101023.80;106425;1282;24203;-74
2023/02/08 07:36:39;;;;;;;72.00;31.80;;;;;;;-1.03;87.87;101024.06;106794;1280;22550;-74
2023/02/08 07:39:06;;;;;;;67.80;31.20;;;;;;;-1.03;87.51;101026.67;106753;1282;139316;-74
2023/02/08 07:41:33;;;;;;;63.70;28.50;;;;;;;-1.00;87.70;101031.86;106526;1280;25568;-73
2023/02/08 07:44:00;;;;;;;64.50;29.30;;;;;;;-1.01;87.30;101032.77;106670;1282;138911;-74
2023/02/08 07:46:27;;;;;;;67.00;29.70;;;;;;;-0.98;87.15;101031.02;106360;1284;22546;-74
2023/02/08 07:48:54;;;;;;;58.60;27.70;;;;;;;-0.98;86.93;101028.52;106478;1283;22978;-74
2023/02/08 07:51:21;;;;;;;58.90;26.80;;;;;;;-0.99;86.45;101027.88;106255;1267;138981;-73
2023/02/08 07:53:49;;;;;;;57.80;26.40;;;;;;;-0.99;86.39;101028.54;106382;1282;22556;-74
2023/02/08 07:56:16;;;;;;;55.70;25.40;;;;;;;-0.97;86.29;101025.90;106618;1279;138522;-74
2023/02/08 07:58:43;;;;;;;52.60;25.20;;;;;;;-0.92;86.51;101034.89;106459;1280;22689;-74
2023/02/08 08:01:10;;;;;;;60.10;27.30;;;;;;;-0.86;86.20;101032.69;106442;1266;25546;-73
2023/02/08 08:03:37;;;;;;;57.60;25.60;;;;;;;-0.77;86.45;101032.90;106228;1283;139160;-74
2023/02/08 08:06:05;;;;;;;53.50;24.70;;;;;;;-0.67;85.82;101031.88;106584;1280;25233;-74
2023/02/08 08:08:32;;;;;;;54.50;25.00;;;;;;;-0.56;85.87;101029.48;106449;1283;139134;-74
2023/02/08 08:10:58;;;;;;;55.40;25.30;;;;;;;-0.39;85.94;101036.64;106388;1267;24340;-74
2023/02/08 08:13:25;;;;;;;49.50;25.10;;;;;;;-0.21;85.64;101042.71;106413;1283;139874;-74
2023/02/08 08:15:52;;;;;;;49.50;21.40;;;;;;;-0.06;85.45;101042.66;106530;1283;25350;-74
2023/02/08 08:18:19;;;;;;;44.30;20.90;;;;;;;0.09;84.64;101043.14;106438;1280;24268;-74
2023/02/08 08:20:46;;;;;;;48.90;22.20;;;;;;;0.19;83.69;101047.80;106209;1260;139722;-74
2023/02/08 08:23:15;;;;;;;44.20;22.40;;;;;;;0.19;83.46;101045.13;106309;1284;22548;-74
2023/02/08 08:25:42;;;;;;;43.60;21.10;;;;;;;0.20;83.33;101043.07;106137;1284;138530;-74
2023/02/08 08:28:09;;;;;;;51.70;23.40;;;;;;;0.24;83.22;101045.85;106278;1280;25316;-74
2023/02/08 08:30:36;;;;;;;48.40;21.30;;;;;;;0.27;83.14;101047.43;106316;1268;23019;-74
2023/02/08 08:33:03;;;;;;;48.60;21.50;;;;;;;0.29;82.48;101045.27;106573;1265;140169;-74
2023/02/08 08:35:30;;;;;;;55.30;21.60;;;;;;;0.30;82.42;101048.58;106322;1282;22565;-74
2023/02/08 08:37:57;;;;;;;47.80;23.00;;;;;;;0.32;82.38;101054.87;106328;1282;139138;-74
2023/02/08 08:40:24;;;;;;;48.10;21.70;;;;;;;0.34;82.09;101053.30;106355;1282;26654;-74
2023/02/08 08:42:51;;;;;;;43.40;22.00;;;;;;;0.34;81.71;101050.75;106229;1264;22566;-74
2023/02/08 08:45:18;;;;;;;53.30;23.40;;;;;;;0.34;81.75;101052.60;106082;1273;138371;-74
2023/02/08 08:47:45;;;;;;;43.80;21.60;;;;;;;0.37;81.97;101059.85;106208;1284;22559;-74
2023/02/08 08:50:12;;;;;;;43.50;20.40;;;;;;;0.42;81.80;101063.58;108101;1270;138687;-75
2023/02/08 08:52:39;;;;;;;50.60;21.50;;;;;;;0.48;81.48;101063.30;107868;1277;22546;-75
2023/02/08 08:55:06;;;;;;;46.40;21.60;;;;;;;0.57;81.52;101061.78;107375;1260;22289;-75
2023/02/08 08:57:33;;;;;;;43.80;19.90;;;;;;;0.67;81.37;101063.48;106947;1283;139824;-74
2023/02/08 09:00:01;;;;;;;41.60;19.30;;;;;;;0.81;81.46;101062.42;106940;1283;23920;-74
2023/02/08 09:02:28;;;;;;;44.50;20.20;;;;;;;0.92;80.58;101060.54;106272;1267;138655;-74
2023/02/08 09:04:58;;;;;;;39.90;21.00;;;;;;;1.01;80.54;101063.95;106479;1283;22552;-74
2023/02/08 09:07:25;;;;;;;44.00;21.70;;;;;;;1.06;79.92;101066.77;106375;1283;139307;-75
2023/02/08 09:09:53;;;;;;;45.40;22.00;;;;;;;1.09;79.79;101062.27;106317;1284;22611;-74
2023/02/08 09:12:20;;;;;;;45.50;21.80;;;;;;;1.18;79.84;101065.85;106500;1276;22541;-74
2023/02/08 09:14:47;;;;;;;48.50;21.90;;;;;;;1.23;79.50;101074.79;106181;1262;138222;-74
2023/02/08 09:17:14;;;;;;;43.50;20.00;;;;;;;1.27;79.16;101073.00;106438;1282;25600;-74
2023/02/08 09:19:41;;;;;;;46.40;20.00;;;;;;;1.34;79.09;101075.20;106548;1276;138164;-75
2023/02/08 09:22:08;;;;;;;41.10;20.50;;;;;;;1.45;78.82;101076.11;107000;1260;22947;-75
2023/02/08 09:24:35;;;;;;;41.30;21.10;;;;;;;1.65;79.10;101072.70;106316;1284;25511;-74
2023/02/08 09:27:02;;;;;;;45.90;20.60;;;;;;;1.91;78.82;101070.95;106382;1278;138077;-74
2023/02/08 09:29:31;;;;;;;39.00;20.10;;;;;;;2.16;78.33;101075.76;106433;1284;22548;-75
2023/02/08 09:31:58;;;;;;;37.50;17.80;;;;;;;2.36;77.30;101074.98;106419;1283;139543;-75
2023/02/08 09:34:26;;;;;;;35.80;18.20;;;;;;;2.50;76.80;101075.13;106290;1277;24290;-75
2023/02/08 09:36:53;;;;;;;40.20;19.00;;;;;;;2.60;75.86;101076.43;106291;1284;22556;-74
2023/02/08 09:39:23;;;;;;;33.30;16.90;;;;;;;2.61;75.64;101080.09;106242;1280;137712;-75
2023/02/08 09:42:19;;;;;;;35.20;16.60;;;;;;;2.60;74.57;101080.57;106187;1284;27186;-74
2023/02/08 09:45:00;;;;;;;34.20;16.90;;;;;;;2.63;74.49;101079.91;106687;1267;138389;-74
2023/02/08 09:47:49;;;;;;;33.00;16.40;;;;;;;2.67;74.18;101079.24;106307;1284;22545;-75
2023/02/08 09:50:33;;;;;;;35.10;16.60;;;;;;;2.61;72.99;101075.85;106124;1282;138137;-74
2023/02/08 09:53:08;;;;;;;33.80;15.60;;;;;;;2.48;73.16;101080.64;106603;1260;22778;-75
2023/02/08 09:56:01;;;;;;;27.90;14.70;;;;;;;2.39;73.00;101076.95;106324;1283;139170;-75
2023/02/08 09:58:38;;;;;;;28.50;14.40;;;;;;;2.41;72.90;101078.34;106396;1282;22583;-75
2023/02/08 10:01:17;;;;;;;23.90;12.50;;;;;;;2.34;72.35;101071.05;106362;1283;22541;-75
2023/02/08 10:03:46;;;;;;;28.50;13.50;;;;;;;2.18;71.59;101069.86;106387;1267;22563;-74
2023/02/08 10:06:18;;;;;;;28.30;13.50;;;;;;;2.11;71.95;101072.05;106496;1283;25144;-75
2023/02/08 10:08:51;;;;;;;24.70;12.60;;;;;;;2.05;71.94;101075.20;106205;1283;137945;-75
2023/02/08 10:12:04;;;;;;;24.60;12.70;;;;;;;1.97;71.50;101071.56;106224;1283;22536;-75
2023/02/08 10:14:49;;;;;;;23.10;12.70;;;;;;;1.91;72.10;101065.77;106146;1265;138063;-75
2023/02/08 10:17:37;;;;;;;24.80;12.00;;;;;;;1.91;71.81;101065.07;106165;1284;25400;-75
2023/02/08 10:20:42;;;;;;;27.50;12.10;;;;;;;1.89;71.82;101063.77;106113;1283;138112;-75
2023/02/08 10:23:25;;;;;;;24.60;12.00;;;;;;;1.91;71.49;101066.34;106286;1285;23966;-75
2023/02/08 10:26:20;;;;;;;26.40;12.70;;;;;;;1.89;71.84;101057.84;106105;1270;138243;-75
2023/02/08 10:29:05;;;;;;;22.90;12.20;;;;;;;1.87;71.64;101057.70;106319;1284;23467;-75
2023/02/08 10:32:06;;;;;;;23.30;12.90;;;;;;;1.86;71.45;101054.56;106040;1279;138803;-75
2023/02/08 10:34:53;;;;;;;26.20;12.80;;;;;;;1.89;71.62;101056.80;106170;1268;22631;-75
2023/02/08 10:37:35;;;;;;;30.20;14.30;;;;;;;1.98;71.50;101055.75;106016;1285;138433;-75
2023/02/08 10:40:22;;;;;;;28.30;14.10;;;;;;;2.06;71.41;101058.25;106210;1275;25247;-74
2023/02/08 10:43:39;;;;;;;27.50;14.10;;;;;;;2.13;71.33;101054.75;106234;1285;22605;-74
2023/02/08 10:46:40;;;;;;;27.50;13.00;;;;;;;2.16;71.19;101055.36;106312;1266;22925;-74
2023/02/08 10:49:20;;;;;;;31.10;14.70;;;;;;;2.20;71.30;101056.60;106338;1262;24318;-74
2023/02/08 10:51:49;;;;;;;26.50;13.40;;;;;;;2.27;71.44;101053.19;106653;1283;22549;-74
2023/02/08 10:54:17;;;;;;;30.60;15.00;;;;;;;2.35;71.44;101047.53;106572;1260;22539;-74
2023/02/08 10:56:59;;;;;;;30.40;15.30;;;;;;;2.39;71.07;101050.36;106271;1283;138814;-74
2023/02/08 10:59:49;;;;;;;31.40;15.50;;;;;;;2.41;71.03;101056.14;106544;1272;24355;-74
2023/02/08 11:02:25;;;;;;;;;;;;;;;2.44;71.47;101058.20;106276;1283;137677;-74
2023/02/08 11:05:01;;;;;;;29.70;14.80;;;;;;;2.48;70.73;101053.06;106333;1265;22550;-74
2023/02/08 11:07:29;;;;;;;27.50;13.80;;;;;;;2.49;70.54;101047.63;106269;1281;139672;-73
2023/02/08 11:10:18;;;;;;;30.20;15.00;;;;;;;2.50;70.94;101055.03;106497;1284;22553;-73
2023/02/08 11:13:19;;;;;;;28.90;14.80;;;;;;;2.62;70.87;101048.10;106367;1281;24250;-74
2023/02/08 11:15:46;;;;;;;31.40;14.50;;;;;;;2.73;70.74;101046.11;106293;1265;137754;-74
2023/02/08 11:18:33;;;;;;;27.50;14.40;;;;;;;2.81;70.45;101050.64;106439;1282;22658;-73
2023/02/08 11:21:34;;;;;;;28.30;14.90;;;;;;;2.83;69.60;101052.04;106359;1282;138550;-74
2023/02/08 11:24:34;;;;;;;23.70;12.50;;;;;;;2.83;69.72;101049.71;106750;1275;25485;-73